createdAt,value
2023-01-19T00:00:20.508Z,95.90
2023-01-19T00:02:48.108Z,96.00
2023-01-19T00:05:15.239Z,96.00
2023-01-19T00:07:42.482Z,96.00
2023-01-19T00:10:10.419Z,96.00
2023-01-19T00:12:37.148Z,96.00
2023-01-19T00:15:04.416Z,96.00
2023-01-19T00:17:31.136Z,96.00
2023-01-19T00:19:57.894Z,96.00
2023-01-19T00:22:24.643Z,96.00
2023-01-19T00:24:51.401Z,96.10
2023-01-19T00:27:18.178Z,96.40
2023-01-19T00:29:44.895Z,96.10
2023-01-19T00:32:11.639Z,96.00
2023-01-19T00:34:43.428Z,96.00
2023-01-19T00:37:10.246Z,96.10
2023-01-19T00:39:37.002Z,96.10
2023-01-19T00:42:22.633Z,96.10
2023-01-19T00:44:49.335Z,96.10
2023-01-19T00:47:16.015Z,96.20
2023-01-19T00:49:42.726Z,96.20
2023-01-19T00:52:09.668Z,96.20
2023-01-19T00:54:36.386Z,96.20
2023-01-19T00:57:03.518Z,96.20
2023-01-19T00:59:30.212Z,96.20
2023-01-19T01:01:57.046Z,96.30
2023-01-19T01:04:23.854Z,96.30
2023-01-19T01:06:50.546Z,96.20
2023-01-19T01:09:17.323Z,96.20
2023-01-19T01:11:44.311Z,96.20
2023-01-19T01:14:12.366Z,96.30
2023-01-19T01:16:39.627Z,96.30
2023-01-19T01:19:06.364Z,96.30
2023-01-19T01:21:34.634Z,96.30
2023-01-19T01:24:02.176Z,96.20
2023-01-19T01:26:28.962Z,96.20
2023-01-19T01:28:55.729Z,96.20
2023-01-19T01:31:22.631Z,96.30
2023-01-19T01:33:49.398Z,96.20
2023-01-19T01:36:16.514Z,96.20
2023-01-19T01:38:43.307Z,96.20
2023-01-19T01:41:10.198Z,96.20
2023-01-19T01:43:53.442Z,96.20
2023-01-19T01:46:20.826Z,96.30
2023-01-19T01:49:11.013Z,96.30
2023-01-19T01:51:44.616Z,96.40
2023-01-19T01:54:20.137Z,96.50
2023-01-19T01:56:49.510Z,96.50
2023-01-19T01:59:39.225Z,96.60
2023-01-19T02:02:29.410Z,96.60
2023-01-19T02:05:05.383Z,96.60
2023-01-19T02:08:27.215Z,96.70
2023-01-19T02:11:13.125Z,96.80
2023-01-19T02:13:47.037Z,96.70
2023-01-19T02:16:15.859Z,96.80
2023-01-19T02:18:43.411Z,97.00
2023-01-19T02:21:21.136Z,97.00
2023-01-19T02:23:51.834Z,97.20
2023-01-19T02:26:25.230Z,97.20
2023-01-19T02:29:19.803Z,97.40
2023-01-19T02:31:46.924Z,97.30
2023-01-19T02:34:17.434Z,97.20
2023-01-19T02:36:55.881Z,97.20
2023-01-19T02:39:31.056Z,97.20
2023-01-19T02:42:03.348Z,97.10
2023-01-19T02:44:31.725Z,97.00
2023-01-19T02:46:58.523Z,96.90
2023-01-19T02:49:28.413Z,96.90
2023-01-19T02:51:55.340Z,96.90
2023-01-19T02:54:55.717Z,96.90
2023-01-19T02:57:39.170Z,96.90
2023-01-19T03:00:24.465Z,96.90
2023-01-19T03:03:09.200Z,96.90
2023-01-19T03:06:01.577Z,96.90
2023-01-19T03:08:50.256Z,96.80
2023-01-19T03:11:17.197Z,96.90
2023-01-19T03:13:46.813Z,97.20
2023-01-19T03:16:44.112Z,96.80
2023-01-19T03:19:20.138Z,96.80
2023-01-19T03:21:50.766Z,96.70
2023-01-19T03:24:19.613Z,96.70
2023-01-19T03:26:56.078Z,96.50
2023-01-19T03:29:24.275Z,96.40
2023-01-19T03:31:52.067Z,96.40
2023-01-19T03:34:23.890Z,96.30
2023-01-19T03:36:55.026Z,96.20
2023-01-19T03:39:23.915Z,96.10
2023-01-19T03:41:54.769Z,96.20
2023-01-19T03:44:23.579Z,96.20
2023-01-19T03:46:50.929Z,96.10
2023-01-19T03:49:18.808Z,96.10
2023-01-19T03:51:45.997Z,96.00
2023-01-19T03:54:12.892Z,96.10
2023-01-19T03:56:39.642Z,96.00
2023-01-19T03:59:07.450Z,96.10
2023-01-19T04:01:34.347Z,96.00
2023-01-19T04:04:01.092Z,96.00
2023-01-19T04:06:28.263Z,96.20
2023-01-19T04:08:55.048Z,96.20
2023-01-19T04:11:21.796Z,96.10
2023-01-19T04:13:48.451Z,96.20
2023-01-19T04:16:19.996Z,96.30
2023-01-19T04:18:47.062Z,96.20
2023-01-19T04:21:13.743Z,96.20
2023-01-19T04:23:40.484Z,96.20
2023-01-19T04:26:08.628Z,96.30
2023-01-19T04:28:37.137Z,96.30
2023-01-19T04:31:05.445Z,96.30
2023-01-19T04:33:32.913Z,96.30
2023-01-19T04:35:59.704Z,96.30
2023-01-19T04:38:27.265Z,96.70
2023-01-19T04:40:54.614Z,96.30
2023-01-19T04:43:22.884Z,96.40
2023-01-19T04:45:50.100Z,96.40
2023-01-19T04:48:18.458Z,96.40
2023-01-19T04:50:45.421Z,96.50
2023-01-19T04:53:13.676Z,96.50
2023-01-19T04:55:40.609Z,96.60
2023-01-19T04:58:07.627Z,96.60
2023-01-19T05:00:34.360Z,96.60
2023-01-19T05:03:01.767Z,96.60
2023-01-19T05:05:29.132Z,96.70
2023-01-19T05:07:56.212Z,96.70
2023-01-19T05:10:23.770Z,96.80
2023-01-19T05:12:51.273Z,96.80
2023-01-19T05:15:18.191Z,96.80
2023-01-19T05:17:45.153Z,96.80
2023-01-19T05:20:15.691Z,96.80
2023-01-19T05:22:43.279Z,96.80
2023-01-19T05:25:10.080Z,96.80
2023-01-19T05:27:37.596Z,96.80
2023-01-19T05:30:05.706Z,96.90
2023-01-19T05:32:32.839Z,97.20
2023-01-19T05:34:59.621Z,97.30
2023-01-19T05:37:26.382Z,96.90
2023-01-19T05:39:53.504Z,97.00
2023-01-19T05:42:20.470Z,97.00
2023-01-19T05:44:47.160Z,97.00
2023-01-19T05:47:13.844Z,97.00
2023-01-19T05:49:40.594Z,97.00
2023-01-19T05:52:07.438Z,97.00
2023-01-19T05:54:34.225Z,97.00
2023-01-19T05:57:01.652Z,97.00
2023-01-19T05:59:29.158Z,97.30
2023-01-19T06:01:57.130Z,97.30
2023-01-19T06:04:24.063Z,97.00
2023-01-19T06:06:51.499Z,96.90
2023-01-19T06:09:18.781Z,96.90
2023-01-19T06:11:46.681Z,96.90
2023-01-19T06:14:13.787Z,96.90
2023-01-19T06:16:40.850Z,96.80
2023-01-19T06:19:07.915Z,96.80
2023-01-19T06:21:34.665Z,96.70
2023-01-19T06:24:01.627Z,96.80
2023-01-19T06:26:28.444Z,96.70
2023-01-19T06:28:55.506Z,96.70
2023-01-19T06:31:22.318Z,96.70
2023-01-19T06:33:49.936Z,96.70
2023-01-19T06:36:16.685Z,96.70
2023-01-19T06:38:43.463Z,96.70
2023-01-19T06:41:10.157Z,96.70
2023-01-19T06:43:36.886Z,96.60
2023-01-19T06:46:04.792Z,96.50
2023-01-19T06:48:31.653Z,96.50
2023-01-19T06:50:59.708Z,96.50
2023-01-19T06:53:28.068Z,96.50
2023-01-19T06:55:59.690Z,96.50
2023-01-19T06:58:28.380Z,96.50
2023-01-19T07:00:55.303Z,96.50
2023-01-19T07:03:23.363Z,96.50
2023-01-19T07:05:53.806Z,96.50
2023-01-19T07:08:20.660Z,96.40
2023-01-19T07:11:25.650Z,96.30
2023-01-19T07:13:35.557Z,96.30
2023-01-19T07:16:08.157Z,96.30
2023-01-19T07:18:35.736Z,96.20
2023-01-19T07:21:02.684Z,96.20
2023-01-19T07:23:30.769Z,96.20
2023-01-19T07:25:58.869Z,96.20
2023-01-19T07:28:25.735Z,96.20
2023-01-19T07:30:53.923Z,96.20
2023-01-19T07:33:26.197Z,96.20
2023-01-19T07:35:53.625Z,96.20
2023-01-19T07:38:20.986Z,96.30
2023-01-19T07:40:47.767Z,96.30
2023-01-19T07:43:15.579Z,96.20
2023-01-19T07:45:42.369Z,96.30
2023-01-19T07:48:09.068Z,96.30
2023-01-19T07:50:35.802Z,96.40
2023-01-19T07:53:08.051Z,96.40
2023-01-19T07:55:35.228Z,96.30
2023-01-19T07:58:03.912Z,96.30
2023-01-19T08:00:30.651Z,96.30
2023-01-19T08:03:01.512Z,96.40
2023-01-19T08:05:31.628Z,96.40
2023-01-19T08:07:59.100Z,96.40
2023-01-19T08:10:27.717Z,96.40
2023-01-19T08:12:55.911Z,96.50
2023-01-19T08:15:24.608Z,96.50
2023-01-19T08:18:05.553Z,96.50
2023-01-19T08:20:32.846Z,96.50
2023-01-19T08:23:00.449Z,96.50
2023-01-19T08:25:42.446Z,96.40
2023-01-19T08:28:10.560Z,96.40
2023-01-19T08:30:38.534Z,96.40
2023-01-19T08:33:08.039Z,96.40
2023-01-19T08:35:39.944Z,96.30
2023-01-19T08:38:08.528Z,96.30
2023-01-19T08:40:40.228Z,96.70
2023-01-19T08:43:10.387Z,96.70
2023-01-19T08:45:41.448Z,96.20
2023-01-19T08:48:08.421Z,96.30
2023-01-19T08:50:35.312Z,96.30
2023-01-19T08:53:06.130Z,96.40
2023-01-19T08:55:37.154Z,97.00
2023-01-19T08:58:05.694Z,96.90
2023-01-19T09:00:37.975Z,97.00
2023-01-19T09:03:06.440Z,97.10
2023-01-19T09:05:37.283Z,97.20
2023-01-19T09:08:06.237Z,97.30
2023-01-19T09:10:36.011Z,97.20
2023-01-19T09:13:08.466Z,97.30
2023-01-19T09:15:37.834Z,97.30
2023-01-19T09:18:07.110Z,97.30
2023-01-19T09:20:36.196Z,97.30
2023-01-19T09:23:03.457Z,97.20
2023-01-19T09:25:30.316Z,97.20
2023-01-19T09:27:59.314Z,97.20
2023-01-19T09:30:27.717Z,97.20
2023-01-19T09:32:54.652Z,97.20
2023-01-19T09:35:21.613Z,97.10
2023-01-19T09:37:48.722Z,97.10
2023-01-19T09:40:18.716Z,97.10
2023-01-19T09:42:52.061Z,97.10
2023-01-19T09:45:27.098Z,97.00
2023-01-19T09:47:55.745Z,97.00
2023-01-19T09:50:40.148Z,97.00
2023-01-19T09:53:16.830Z,97.00
2023-01-19T09:55:43.669Z,97.00
2023-01-19T09:58:19.805Z,97.10
2023-01-19T10:00:55.663Z,97.40
2023-01-19T10:03:23.981Z,97.10
2023-01-19T10:06:04.124Z,97.00
2023-01-19T10:08:59.203Z,97.30
2023-01-19T10:11:41.964Z,96.90
2023-01-19T10:14:22.488Z,96.90
2023-01-19T10:17:42.745Z,96.90
2023-01-19T10:20:21.169Z,96.70
2023-01-19T10:22:49.392Z,96.70
2023-01-19T10:25:23.112Z,96.70
2023-01-19T10:27:49.915Z,96.60
2023-01-19T10:30:24.446Z,96.70
2023-01-19T10:32:51.674Z,96.60
2023-01-19T10:35:24.286Z,96.40
2023-01-19T10:37:56.056Z,96.50
2023-01-19T10:40:44.485Z,96.30
2023-01-19T10:43:37.088Z,96.30
2023-01-19T10:46:19.228Z,96.10
2023-01-19T10:48:49.987Z,96.00
2023-01-19T10:51:17.415Z,95.80
2023-01-19T10:54:03.407Z,95.80
2023-01-19T10:56:34.397Z,95.50
2023-01-19T10:59:03.144Z,95.20
2023-01-19T11:01:31.231Z,95.00
2023-01-19T11:04:05.631Z,94.70
2023-01-19T11:06:34.298Z,94.30
2023-01-19T11:09:19.253Z,93.80
2023-01-19T11:11:53.459Z,93.70
2023-01-19T11:14:23.261Z,94.00
2023-01-19T11:16:55.795Z,93.60
2023-01-19T11:19:29.317Z,93.00
2023-01-19T11:22:33.028Z,92.40
2023-01-19T11:25:05.299Z,92.40
2023-01-19T11:27:36.298Z,92.50
2023-01-19T11:30:22.312Z,92.00
2023-01-19T11:32:49.404Z,91.70
2023-01-19T11:35:42.441Z,91.50
2023-01-19T11:38:17.259Z,91.00
2023-01-19T11:40:54.929Z,91.20
2023-01-19T11:43:39.713Z,90.70
2023-01-19T11:46:15.254Z,89.00
2023-01-19T11:49:12.743Z,89.20
2023-01-19T11:52:06.417Z,88.00
2023-01-19T11:54:45.815Z,88.90
2023-01-19T11:57:15.480Z,88.00
2023-01-19T11:59:42.217Z,86.60
2023-01-19T12:02:28.317Z,87.20
2023-01-19T12:04:59.387Z,86.40
2023-01-19T12:07:31.026Z,86.00
2023-01-19T12:10:13.487Z,85.30
2023-01-19T12:12:41.255Z,85.40
2023-01-19T12:15:30.623Z,84.90
2023-01-19T12:18:00.577Z,83.10
2023-01-19T12:20:30.979Z,83.40
2023-01-19T12:23:11.232Z,82.90
2023-01-19T12:25:40.915Z,82.00
2023-01-19T12:28:12.991Z,81.80
2023-01-19T12:30:40.190Z,81.30
2023-01-19T12:33:25.884Z,80.50
2023-01-19T12:36:05.822Z,79.80
2023-01-19T12:38:50.070Z,80.60
2023-01-19T12:41:21.263Z,80.40
2023-01-19T12:44:08.887Z,79.80
2023-01-19T12:46:37.056Z,80.00
2023-01-19T12:49:30.799Z,79.20
2023-01-19T12:52:40.442Z,79.20
2023-01-19T12:55:13.246Z,78.50
2023-01-19T12:57:55.286Z,77.80
2023-01-19T13:00:21.933Z,77.80
2023-01-19T13:02:49.799Z,77.00
2023-01-19T13:05:36.605Z,76.00
2023-01-19T13:08:03.487Z,76.90
2023-01-19T13:11:09.597Z,76.10
2023-01-19T13:13:49.418Z,75.60
2023-01-19T13:16:19.520Z,76.00
2023-01-19T13:19:06.544Z,76.50
2023-01-19T13:21:34.679Z,76.00
2023-01-19T13:24:10.541Z,75.60
2023-01-19T13:26:49.552Z,75.40
2023-01-19T13:29:30.908Z,75.40
2023-01-19T13:32:02.876Z,74.70
2023-01-19T13:34:42.327Z,74.30
2023-01-19T13:37:19.196Z,74.40
2023-01-19T13:39:50.055Z,74.00
2023-01-19T13:42:41.586Z,75.20
2023-01-19T13:45:33.567Z,74.30
2023-01-19T13:48:04.473Z,74.70
2023-01-19T13:50:39.851Z,74.60
2023-01-19T13:53:20.671Z,74.60
2023-01-19T13:56:18.251Z,74.20
2023-01-19T13:58:57.849Z,74.30
2023-01-19T14:01:28.728Z,74.20
2023-01-19T14:03:56.073Z,74.60
2023-01-19T14:06:44.382Z,74.60
2023-01-19T14:09:19.335Z,75.70
2023-01-19T14:12:06.540Z,75.20
2023-01-19T14:14:33.773Z,75.30
2023-01-19T14:17:00.646Z,75.70
2023-01-19T14:19:28.452Z,76.00
2023-01-19T14:22:03.765Z,76.20
2023-01-19T14:24:33.101Z,75.90
2023-01-19T14:27:12.018Z,75.70
2023-01-19T14:29:38.752Z,75.40
2023-01-19T14:32:22.086Z,74.80
2023-01-19T14:35:04.257Z,74.50
2023-01-19T14:37:37.137Z,75.00
2023-01-19T14:40:12.971Z,74.70
2023-01-19T14:42:47.835Z,74.50
2023-01-19T14:45:27.291Z,75.10
2023-01-19T14:48:06.624Z,74.90
2023-01-19T14:50:39.693Z,74.80
2023-01-19T14:53:23.789Z,74.70
2023-01-19T14:56:03.180Z,74.40
2023-01-19T14:58:32.480Z,74.50
2023-01-19T15:00:59.511Z,74.10
2023-01-19T15:03:43.379Z,73.80
2023-01-19T15:06:21.213Z,73.30
2023-01-19T15:08:50.115Z,74.00
2023-01-19T15:11:34.224Z,73.90
2023-01-19T15:14:02.441Z,74.00
2023-01-19T15:16:31.801Z,73.70
2023-01-19T15:18:58.555Z,73.80
2023-01-19T15:21:26.781Z,73.50
2023-01-19T15:23:54.600Z,74.40
2023-01-19T15:26:25.133Z,73.90
2023-01-19T15:28:52.097Z,73.80
2023-01-19T15:31:21.164Z,73.70
2023-01-19T15:34:02.993Z,74.40
2023-01-19T15:36:29.743Z,74.30
2023-01-19T15:38:57.117Z,74.20
2023-01-19T15:41:32.183Z,74.40
2023-01-19T15:43:59.000Z,74.70
2023-01-19T15:46:26.393Z,74.60
2023-01-19T15:48:53.960Z,74.70
2023-01-19T15:51:22.877Z,74.90
2023-01-19T15:53:50.532Z,74.90
2023-01-19T15:56:21.907Z,75.10
2023-01-19T15:58:48.807Z,75.30
2023-01-19T16:01:18.056Z,75.50
2023-01-19T16:03:45.377Z,75.70
2023-01-19T16:06:12.921Z,75.90
2023-01-19T16:08:40.171Z,76.30
2023-01-19T16:11:10.103Z,76.60
2023-01-19T16:13:37.553Z,76.70
2023-01-19T16:16:08.038Z,77.00
2023-01-19T16:18:34.876Z,77.20
2023-01-19T16:21:01.769Z,77.40
2023-01-19T16:23:28.484Z,77.70
2023-01-19T16:26:05.003Z,77.70
2023-01-19T16:28:32.090Z,78.00
2023-01-19T16:30:58.825Z,78.10
2023-01-19T16:33:25.582Z,78.30
2023-01-19T16:35:53.067Z,78.40
2023-01-19T16:38:21.643Z,78.70
2023-01-19T16:40:48.325Z,78.80
2023-01-19T16:43:15.902Z,79.00
2023-01-19T16:46:02.836Z,79.20
2023-01-19T16:48:30.103Z,79.30
2023-01-19T16:51:05.658Z,79.50
2023-01-19T16:53:37.088Z,79.70
2023-01-19T16:56:08.681Z,79.90
2023-01-19T16:58:38.321Z,80.00
2023-01-19T17:01:20.043Z,80.10
2023-01-19T17:03:47.726Z,81.10
2023-01-19T17:06:18.264Z,80.40
2023-01-19T17:08:45.200Z,80.70
2023-01-19T17:11:23.416Z,80.80
2023-01-19T17:13:56.620Z,81.00
2023-01-19T17:16:28.215Z,81.30
2023-01-19T17:18:57.986Z,81.40
2023-01-19T17:21:25.219Z,81.60
2023-01-19T17:23:53.816Z,81.60
2023-01-19T17:26:21.336Z,81.80
2023-01-19T17:28:48.120Z,81.90
2023-01-19T17:31:17.764Z,82.10
2023-01-19T17:33:46.079Z,82.20
2023-01-19T17:36:16.547Z,82.40
2023-01-19T17:38:43.446Z,82.60
2023-01-19T17:41:24.672Z,82.70
2023-01-19T17:43:52.328Z,82.80
2023-01-19T17:46:22.092Z,82.90
2023-01-19T17:48:56.960Z,83.00
2023-01-19T17:51:24.670Z,83.10
2023-01-19T17:53:52.545Z,83.20
2023-01-19T17:56:21.971Z,83.30
2023-01-19T17:58:49.230Z,83.40
2023-01-19T18:01:18.820Z,83.50
2023-01-19T18:03:46.129Z,83.60
2023-01-19T18:06:13.538Z,83.70
2023-01-19T18:08:42.738Z,83.80
2023-01-19T18:11:10.463Z,84.00
2023-01-19T18:13:38.174Z,84.20
2023-01-19T18:16:08.511Z,84.30
2023-01-19T18:18:35.700Z,84.50
2023-01-19T18:21:08.623Z,84.80
2023-01-19T18:23:35.782Z,85.30
2023-01-19T18:26:06.136Z,85.70
2023-01-19T18:28:33.032Z,86.20
2023-01-19T18:30:59.900Z,86.70
2023-01-19T18:33:27.512Z,86.80
2023-01-19T18:35:54.426Z,87.00
2023-01-19T18:38:22.485Z,87.10
2023-01-19T18:40:49.202Z,87.30
2023-01-19T18:43:15.897Z,87.40
2023-01-19T18:45:45.305Z,87.50
2023-01-19T18:48:12.031Z,87.60
2023-01-19T18:50:38.925Z,87.70
2023-01-19T18:53:05.626Z,87.80
2023-01-19T18:55:32.392Z,87.80
2023-01-19T18:57:59.195Z,87.90
2023-01-19T19:00:26.012Z,88.00
2023-01-19T19:02:55.544Z,88.10
2023-01-19T19:05:22.252Z,88.10
2023-01-19T19:07:49.123Z,88.30
2023-01-19T19:10:16.029Z,88.40
2023-01-19T19:12:42.785Z,88.50
2023-01-19T19:15:10.103Z,88.70
2023-01-19T19:17:36.943Z,88.90
2023-01-19T19:20:04.096Z,89.30
2023-01-19T19:22:31.752Z,89.50
2023-01-19T19:24:58.474Z,89.80
2023-01-19T19:27:25.188Z,90.10
2023-01-19T19:29:51.969Z,90.20
2023-01-19T19:32:20.472Z,90.30
2023-01-19T19:34:53.177Z,90.40
2023-01-19T19:37:20.534Z,90.50
2023-01-19T19:39:48.402Z,90.50
2023-01-19T19:42:15.393Z,90.60
2023-01-19T19:44:42.059Z,90.60
2023-01-19T19:47:08.886Z,90.60
2023-01-19T19:49:35.581Z,90.70
2023-01-19T19:52:02.365Z,91.10
2023-01-19T19:54:29.202Z,90.70
2023-01-19T19:56:55.995Z,90.80
2023-01-19T19:59:22.752Z,90.80
2023-01-19T20:01:51.014Z,90.80
2023-01-19T20:04:20.265Z,90.80
2023-01-19T20:06:48.463Z,90.80
2023-01-19T20:09:16.263Z,90.90
2023-01-19T20:11:44.711Z,90.80
2023-01-19T20:14:13.007Z,90.80
2023-01-19T20:16:40.074Z,90.90
2023-01-19T20:19:07.103Z,90.90
2023-01-19T20:21:36.029Z,91.00
2023-01-19T20:24:05.829Z,91.00
2023-01-19T20:26:35.333Z,91.10
2023-01-19T20:29:06.836Z,91.20
2023-01-19T20:31:36.852Z,91.20
2023-01-19T20:34:06.324Z,91.30
2023-01-19T20:36:33.617Z,91.40
2023-01-19T20:39:02.825Z,91.30
2023-01-19T20:41:29.546Z,91.40
2023-01-19T20:43:56.302Z,91.30
2023-01-19T20:46:23.016Z,91.30
2023-01-19T20:48:52.935Z,91.40
2023-01-19T20:51:20.418Z,91.50
2023-01-19T20:53:47.682Z,91.50
2023-01-19T20:56:15.304Z,91.50
2023-01-19T20:58:42.672Z,91.50
2023-01-19T21:01:18.793Z,91.60
2023-01-19T21:03:45.912Z,91.60
2023-01-19T21:06:13.094Z,91.60
2023-01-19T21:08:40.411Z,91.60
2023-01-19T21:11:07.289Z,91.60
2023-01-19T21:13:34.707Z,91.70
2023-01-19T21:16:02.161Z,91.70
2023-01-19T21:18:29.078Z,91.80
2023-01-19T21:20:57.479Z,91.80
2023-01-19T21:23:27.769Z,91.80
2023-01-19T21:25:56.996Z,91.80
2023-01-19T21:28:24.665Z,91.90
2023-01-19T21:30:52.845Z,91.80
2023-01-19T21:33:20.499Z,91.90
2023-01-19T21:35:55.479Z,91.80
2023-01-19T21:38:23.803Z,91.80
2023-01-19T21:40:50.835Z,91.70
2023-01-19T21:43:19.280Z,91.70
2023-01-19T21:45:47.281Z,91.70
2023-01-19T21:48:14.708Z,91.80
2023-01-19T21:50:41.734Z,91.70
2023-01-19T21:53:11.439Z,91.80
2023-01-19T21:55:42.894Z,91.90
2023-01-19T21:58:09.611Z,91.90
2023-01-19T22:00:36.367Z,91.90
2023-01-19T22:03:04.600Z,92.00
2023-01-19T22:05:36.824Z,92.00
2023-01-19T22:08:04.913Z,92.00
2023-01-19T22:10:31.724Z,92.00
2023-01-19T22:12:58.529Z,92.10
2023-01-19T22:15:25.282Z,92.10
2023-01-19T22:17:51.981Z,92.20
2023-01-19T22:20:18.784Z,92.20
2023-01-19T22:22:45.465Z,92.20
2023-01-19T22:25:12.513Z,92.30
2023-01-19T22:27:39.471Z,92.40
2023-01-19T22:30:06.955Z,92.40
2023-01-19T22:32:33.697Z,92.50
2023-01-19T22:35:00.502Z,92.50
2023-01-19T22:37:27.306Z,92.50
2023-01-19T22:39:54.080Z,92.60
2023-01-19T22:42:20.779Z,92.60
2023-01-19T22:44:47.557Z,92.60
2023-01-19T22:47:14.254Z,92.80
2023-01-19T22:49:41.016Z,92.80
2023-01-19T22:52:07.896Z,92.90
2023-01-19T22:54:34.681Z,92.90
2023-01-19T22:57:01.370Z,92.90
2023-01-19T22:59:28.219Z,92.90
2023-01-19T23:01:55.100Z,92.90
2023-01-19T23:04:21.889Z,92.90
2023-01-19T23:06:51.172Z,92.90
2023-01-19T23:09:18.406Z,92.90
2023-01-19T23:11:51.149Z,92.90
2023-01-19T23:14:20.728Z,92.90
2023-01-19T23:16:47.574Z,92.90
2023-01-19T23:19:14.839Z,92.90
2023-01-19T23:21:41.753Z,92.80
2023-01-19T23:24:08.639Z,92.80
2023-01-19T23:26:38.388Z,92.80
2023-01-19T23:29:07.807Z,92.90
2023-01-19T23:31:36.778Z,92.90
2023-01-19T23:34:06.721Z,93.30
2023-01-19T23:36:35.667Z,92.90
2023-01-19T23:39:05.617Z,92.90
2023-01-19T23:41:34.580Z,93.30
2023-01-19T23:44:01.548Z,92.90
2023-01-19T23:46:29.053Z,92.90
2023-01-19T23:48:55.991Z,93.00
2023-01-19T23:51:28.946Z,93.00
2023-01-19T23:53:57.585Z,93.00
2023-01-19T23:56:27.224Z,93.00
2023-01-19T23:58:57.154Z,93.10
